sensor_id;sensor_type;location;lat;lon;timestamp;P1;durP1;ratioP1;P2;durP2;ratioP2
29824;SDS011;16713;52.916;12.834;2022-12-07T00:01:55;20.52;;;12.95;;
29824;SDS011;16713;52.916;12.834;2022-12-07T00:04:22;18.83;;;11.40;;
29824;SDS011;16713;52.916;12.834;2022-12-07T00:06:50;19.83;;;11.48;;
29824;SDS011;16713;52.916;12.834;2022-12-07T00:09:18;18.40;;;11.63;;
29824;SDS011;16713;52.916;12.834;2022-12-07T00:11:47;18.65;;;11.20;;
29824;SDS011;16713;52.916;12.834;2022-12-07T00:14:16;19.23;;;12.18;;
29824;SDS011;16713;52.916;12.834;2022-12-07T00:16:43;20.58;;;11.35;;
29824;SDS011;16713;52.916;12.834;2022-12-07T00:19:10;19.40;;;11.68;;
29824;SDS011;16713;52.916;12.834;2022-12-07T00:21:38;17.75;;;10.90;;
29824;SDS011;16713;52.916;12.834;2022-12-07T00:24:05;23.38;;;13.02;;
29824;SDS011;16713;52.916;12.834;2022-12-07T00:26:33;18.23;;;11.30;;
29824;SDS011;16713;52.916;12.834;2022-12-07T00:29:03;17.55;;;11.05;;
29824;SDS011;16713;52.916;12.834;2022-12-07T00:31:32;19.15;;;11.38;;
29824;SDS011;16713;52.916;12.834;2022-12-07T00:34:01;19.70;;;12.57;;
29824;SDS011;16713;52.916;12.834;2022-12-07T00:36:28;20.95;;;11.93;;
29824;SDS011;16713;52.916;12.834;2022-12-07T00:38:54;17.25;;;10.57;;
29824;SDS011;16713;52.916;12.834;2022-12-07T00:41:23;21.77;;;11.50;;
29824;SDS011;16713;52.916;12.834;2022-12-07T00:43:51;16.80;;;9.80;;
29824;SDS011;16713;52.916;12.834;2022-12-07T00:46:18;17.17;;;10.63;;
29824;SDS011;16713;52.916;12.834;2022-12-07T00:48:46;16.40;;;10.68;;
29824;SDS011;16713;52.916;12.834;2022-12-07T00:51:14;18.13;;;11.15;;
29824;SDS011;16713;52.916;12.834;2022-12-07T00:53:42;16.67;;;9.68;;
29824;SDS011;16713;52.916;12.834;2022-12-07T00:56:09;18.30;;;11.00;;
29824;SDS011;16713;52.916;12.834;2022-12-07T00:58:38;17.13;;;10.68;;
29824;SDS011;16713;52.916;12.834;2022-12-07T01:01:05;19.30;;;10.88;;
29824;SDS011;16713;52.916;12.834;2022-12-07T01:03:32;17.40;;;9.95;;
29824;SDS011;16713;52.916;12.834;2022-12-07T01:05:59;18.35;;;10.10;;
29824;SDS011;16713;52.916;12.834;2022-12-07T01:08:27;18.83;;;10.35;;
29824;SDS011;16713;52.916;12.834;2022-12-07T01:10:58;18.42;;;11.15;;
29824;SDS011;16713;52.916;12.834;2022-12-07T01:13:30;16.67;;;9.70;;
29824;SDS011;16713;52.916;12.834;2022-12-07T01:15:58;15.95;;;10.35;;
29824;SDS011;16713;52.916;12.834;2022-12-07T01:18:26;16.58;;;10.38;;
29824;SDS011;16713;52.916;12.834;2022-12-07T01:20:58;16.75;;;9.80;;
29824;SDS011;16713;52.916;12.834;2022-12-07T01:23:29;16.77;;;9.95;;
29824;SDS011;16713;52.916;12.834;2022-12-07T01:25:56;14.38;;;9.43;;
29824;SDS011;16713;52.916;12.834;2022-12-07T01:28:24;14.63;;;9.02;;
29824;SDS011;16713;52.916;12.834;2022-12-07T01:31:10;16.23;;;9.90;;
29824;SDS011;16713;52.916;12.834;2022-12-07T01:33:42;20.27;;;9.93;;
29824;SDS011;16713;52.916;12.834;2022-12-07T01:36:14;15.50;;;9.23;;
29824;SDS011;16713;52.916;12.834;2022-12-07T01:38:43;17.85;;;9.85;;
29824;SDS011;16713;52.916;12.834;2022-12-07T01:41:11;15.23;;;9.30;;
29824;SDS011;16713;52.916;12.834;2022-12-07T01:44:07;15.35;;;9.27;;
29824;SDS011;16713;52.916;12.834;2022-12-07T01:46:37;16.42;;;8.98;;
29824;SDS011;16713;52.916;12.834;2022-12-07T01:49:04;13.80;;;8.05;;
29824;SDS011;16713;52.916;12.834;2022-12-07T01:51:34;13.75;;;8.38;;
29824;SDS011;16713;52.916;12.834;2022-12-07T01:54:03;17.52;;;9.02;;
29824;SDS011;16713;52.916;12.834;2022-12-07T01:56:30;11.63;;;7.93;;
29824;SDS011;16713;52.916;12.834;2022-12-07T01:58:58;12.43;;;7.43;;
29824;SDS011;16713;52.916;12.834;2022-12-07T02:01:26;12.18;;;7.70;;
29824;SDS011;16713;52.916;12.834;2022-12-07T02:03:53;11.90;;;7.53;;
29824;SDS011;16713;52.916;12.834;2022-12-07T02:06:20;13.48;;;8.38;;
29824;SDS011;16713;52.916;12.834;2022-12-07T02:08:50;11.00;;;7.55;;
29824;SDS011;16713;52.916;12.834;2022-12-07T02:11:16;14.18;;;7.47;;
29824;SDS011;16713;52.916;12.834;2022-12-07T02:13:44;13.48;;;7.82;;
29824;SDS011;16713;52.916;12.834;2022-12-07T02:21:12;11.02;;;7.53;;
29824;SDS011;16713;52.916;12.834;2022-12-07T02:29:17;13.18;;;8.27;;
29824;SDS011;16713;52.916;12.834;2022-12-07T02:32:32;13.75;;;7.95;;
29824;SDS011;16713;52.916;12.834;2022-12-07T02:37:19;12.35;;;7.13;;
29824;SDS011;16713;52.916;12.834;2022-12-07T02:39:54;12.20;;;7.50;;
29824;SDS011;16713;52.916;12.834;2022-12-07T02:42:31;12.18;;;8.68;;
29824;SDS011;16713;52.916;12.834;2022-12-07T02:45:02;12.27;;;8.10;;
29824;SDS011;16713;52.916;12.834;2022-12-07T02:47:31;16.73;;;8.63;;
29824;SDS011;16713;52.916;12.834;2022-12-07T02:49:59;13.90;;;8.63;;
29824;SDS011;16713;52.916;12.834;2022-12-07T02:52:28;15.38;;;9.60;;
29824;SDS011;16713;52.916;12.834;2022-12-07T02:54:55;16.30;;;9.82;;
29824;SDS011;16713;52.916;12.834;2022-12-07T03:00:16;16.10;;;9.90;;
29824;SDS011;16713;52.916;12.834;2022-12-07T03:02:58;17.55;;;9.43;;
29824;SDS011;16713;52.916;12.834;2022-12-07T03:05:36;20.73;;;10.68;;
29824;SDS011;16713;52.916;12.834;2022-12-07T03:08:23;20.05;;;10.45;;
29824;SDS011;16713;52.916;12.834;2022-12-07T03:10:59;21.20;;;11.38;;
29824;SDS011;16713;52.916;12.834;2022-12-07T03:16:17;19.40;;;10.23;;
29824;SDS011;16713;52.916;12.834;2022-12-07T03:18:52;18.23;;;10.32;;
29824;SDS011;16713;52.916;12.834;2022-12-07T03:21:23;17.77;;;10.73;;
29824;SDS011;16713;52.916;12.834;2022-12-07T03:23:56;21.90;;;11.45;;
29824;SDS011;16713;52.916;12.834;2022-12-07T03:26:30;18.63;;;11.43;;
29824;SDS011;16713;52.916;12.834;2022-12-07T03:29:04;19.30;;;11.60;;
29824;SDS011;16713;52.916;12.834;2022-12-07T03:31:35;23.45;;;13.90;;
29824;SDS011;16713;52.916;12.834;2022-12-07T03:34:07;21.92;;;13.13;;
29824;SDS011;16713;52.916;12.834;2022-12-07T03:37:09;26.67;;;14.15;;
29824;SDS011;16713;52.916;12.834;2022-12-07T03:39:57;24.52;;;13.57;;
29824;SDS011;16713;52.916;12.834;2022-12-07T03:42:30;23.70;;;13.63;;
29824;SDS011;16713;52.916;12.834;2022-12-07T03:44:58;24.63;;;13.98;;
29824;SDS011;16713;52.916;12.834;2022-12-07T03:47:29;28.33;;;15.82;;
29824;SDS011;16713;52.916;12.834;2022-12-07T03:50:07;26.38;;;14.43;;
29824;SDS011;16713;52.916;12.834;2022-12-07T03:52:45;31.15;;;17.42;;
29824;SDS011;16713;52.916;12.834;2022-12-07T03:55:20;36.13;;;17.73;;
29824;SDS011;16713;52.916;12.834;2022-12-07T03:57:53;30.70;;;16.10;;
29824;SDS011;16713;52.916;12.834;2022-12-07T04:00:22;35.10;;;17.50;;
29824;SDS011;16713;52.916;12.834;2022-12-07T04:02:51;36.72;;;19.48;;
29824;SDS011;16713;52.916;12.834;2022-12-07T04:05:19;40.58;;;20.38;;
29824;SDS011;16713;52.916;12.834;2022-12-07T04:07:45;39.20;;;19.15;;
29824;SDS011;16713;52.916;12.834;2022-12-07T04:10:12;37.80;;;20.05;;
29824;SDS011;16713;52.916;12.834;2022-12-07T04:12:39;37.75;;;20.10;;
29824;SDS011;16713;52.916;12.834;2022-12-07T04:15:06;40.13;;;20.98;;
29824;SDS011;16713;52.916;12.834;2022-12-07T04:17:33;38.40;;;20.42;;
29824;SDS011;16713;52.916;12.834;2022-12-07T04:19:59;41.38;;;21.65;;
29824;SDS011;16713;52.916;12.834;2022-12-07T04:22:26;40.15;;;21.48;;
29824;SDS011;16713;52.916;12.834;2022-12-07T04:24:53;45.80;;;22.10;;
29824;SDS011;16713;52.916;12.834;2022-12-07T04:27:19;44.45;;;22.63;;
29824;SDS011;16713;52.916;12.834;2022-12-07T04:29:46;44.95;;;22.60;;
29824;SDS011;16713;52.916;12.834;2022-12-07T04:32:12;45.13;;;22.45;;
29824;SDS011;16713;52.916;12.834;2022-12-07T04:34:38;45.67;;;23.38;;
29824;SDS011;16713;52.916;12.834;2022-12-07T04:37:05;46.85;;;24.15;;
29824;SDS011;16713;52.916;12.834;2022-12-07T04:39:32;47.47;;;24.17;;
29824;SDS011;16713;52.916;12.834;2022-12-07T04:41:59;46.97;;;24.58;;
29824;SDS011;16713;52.916;12.834;2022-12-07T04:44:27;49.17;;;24.90;;
29824;SDS011;16713;52.916;12.834;2022-12-07T04:46:54;46.22;;;26.05;;
29824;SDS011;16713;52.916;12.834;2022-12-07T04:49:21;44.83;;;23.92;;
29824;SDS011;16713;52.916;12.834;2022-12-07T04:51:47;44.53;;;24.20;;
29824;SDS011;16713;52.916;12.834;2022-12-07T04:54:14;49.53;;;24.40;;
29824;SDS011;16713;52.916;12.834;2022-12-07T04:56:43;49.00;;;24.63;;
29824;SDS011;16713;52.916;12.834;2022-12-07T04:59:13;42.28;;;23.08;;
29824;SDS011;16713;52.916;12.834;2022-12-07T05:01:41;41.55;;;23.33;;
29824;SDS011;16713;52.916;12.834;2022-12-07T05:04:08;41.75;;;22.38;;
29824;SDS011;16713;52.916;12.834;2022-12-07T05:06:35;48.42;;;23.73;;
29824;SDS011;16713;52.916;12.834;2022-12-07T05:09:02;38.67;;;20.15;;
29824;SDS011;16713;52.916;12.834;2022-12-07T05:11:29;43.78;;;20.05;;
29824;SDS011;16713;52.916;12.834;2022-12-07T05:14:16;34.92;;;19.92;;
29824;SDS011;16713;52.916;12.834;2022-12-07T05:16:47;37.60;;;20.40;;
29824;SDS011;16713;52.916;12.834;2022-12-07T05:19:16;31.92;;;17.88;;
29824;SDS011;16713;52.916;12.834;2022-12-07T05:21:43;32.95;;;18.30;;
29824;SDS011;16713;52.916;12.834;2022-12-07T05:24:11;29.83;;;17.40;;
29824;SDS011;16713;52.916;12.834;2022-12-07T05:26:38;31.50;;;17.13;;
29824;SDS011;16713;52.916;12.834;2022-12-07T05:29:05;29.67;;;17.35;;
29824;SDS011;16713;52.916;12.834;2022-12-07T05:31:32;33.75;;;17.30;;
29824;SDS011;16713;52.916;12.834;2022-12-07T05:34:00;33.15;;;17.80;;
29824;SDS011;16713;52.916;12.834;2022-12-07T05:36:26;34.08;;;18.73;;
29824;SDS011;16713;52.916;12.834;2022-12-07T05:38:54;32.63;;;17.58;;
29824;SDS011;16713;52.916;12.834;2022-12-07T05:41:21;31.98;;;18.85;;
29824;SDS011;16713;52.916;12.834;2022-12-07T05:44:05;29.10;;;17.05;;
29824;SDS011;16713;52.916;12.834;2022-12-07T05:46:32;30.50;;;17.20;;
29824;SDS011;16713;52.916;12.834;2022-12-07T05:48:59;31.95;;;17.42;;
29824;SDS011;16713;52.916;12.834;2022-12-07T05:51:26;32.55;;;17.23;;
29824;SDS011;16713;52.916;12.834;2022-12-07T05:53:52;30.13;;;17.33;;
29824;SDS011;16713;52.916;12.834;2022-12-07T05:56:19;28.83;;;16.15;;
29824;SDS011;16713;52.916;12.834;2022-12-07T05:58:46;27.15;;;15.07;;
29824;SDS011;16713;52.916;12.834;2022-12-07T06:01:30;24.63;;;14.98;;
29824;SDS011;16713;52.916;12.834;2022-12-07T06:03:57;23.10;;;14.05;;
29824;SDS011;16713;52.916;12.834;2022-12-07T06:06:23;26.55;;;14.80;;
29824;SDS011;16713;52.916;12.834;2022-12-07T06:08:50;21.50;;;12.32;;
29824;SDS011;16713;52.916;12.834;2022-12-07T06:11:17;24.45;;;13.40;;
29824;SDS011;16713;52.916;12.834;2022-12-07T06:14:02;20.10;;;13.10;;
29824;SDS011;16713;52.916;12.834;2022-12-07T06:16:28;19.15;;;10.85;;
29824;SDS011;16713;52.916;12.834;2022-12-07T06:18:55;22.55;;;11.45;;
29824;SDS011;16713;52.916;12.834;2022-12-07T06:21:21;22.95;;;10.93;;
29824;SDS011;16713;52.916;12.834;2022-12-07T06:23:48;18.30;;;9.60;;
29824;SDS011;16713;52.916;12.834;2022-12-07T06:26:14;13.73;;;9.13;;
29824;SDS011;16713;52.916;12.834;2022-12-07T06:28:40;16.92;;;9.38;;
29824;SDS011;16713;52.916;12.834;2022-12-07T06:31:07;13.43;;;8.73;;
29824;SDS011;16713;52.916;12.834;2022-12-07T06:33:39;16.63;;;9.90;;
29824;SDS011;16713;52.916;12.834;2022-12-07T06:36:06;14.35;;;9.20;;
29824;SDS011;16713;52.916;12.834;2022-12-07T06:38:33;12.88;;;7.95;;
29824;SDS011;16713;52.916;12.834;2022-12-07T06:40:59;14.43;;;8.10;;
29824;SDS011;16713;52.916;12.834;2022-12-07T06:43:26;13.80;;;7.60;;
29824;SDS011;16713;52.916;12.834;2022-12-07T06:45:53;10.77;;;6.47;;
29824;SDS011;16713;52.916;12.834;2022-12-07T06:48:20;10.68;;;6.50;;
29824;SDS011;16713;52.916;12.834;2022-12-07T06:50:47;10.10;;;7.32;;
29824;SDS011;16713;52.916;12.834;2022-12-07T06:53:20;9.07;;;5.80;;
29824;SDS011;16713;52.916;12.834;2022-12-07T06:55:47;9.00;;;6.05;;
29824;SDS011;16713;52.916;12.834;2022-12-07T06:58:13;12.15;;;6.63;;
29824;SDS011;16713;52.916;12.834;2022-12-07T07:00:39;10.35;;;5.05;;
29824;SDS011;16713;52.916;12.834;2022-12-07T07:03:06;7.65;;;5.03;;
29824;SDS011;16713;52.916;12.834;2022-12-07T07:05:33;7.55;;;5.30;;
29824;SDS011;16713;52.916;12.834;2022-12-07T07:07:59;7.40;;;5.00;;
29824;SDS011;16713;52.916;12.834;2022-12-07T07:10:46;8.45;;;5.78;;
29824;SDS011;16713;52.916;12.834;2022-12-07T07:13:12;8.93;;;5.88;;
29824;SDS011;16713;52.916;12.834;2022-12-07T07:15:39;8.18;;;5.22;;
29824;SDS011;16713;52.916;12.834;2022-12-07T07:18:05;7.70;;;5.30;;
29824;SDS011;16713;52.916;12.834;2022-12-07T07:20:33;8.98;;;6.78;;
29824;SDS011;16713;52.916;12.834;2022-12-07T07:22:59;7.90;;;5.53;;
29824;SDS011;16713;52.916;12.834;2022-12-07T07:25:26;7.20;;;5.57;;
29824;SDS011;16713;52.916;12.834;2022-12-07T07:27:52;11.52;;;6.70;;
29824;SDS011;16713;52.916;12.834;2022-12-07T07:30:19;8.73;;;5.28;;
29824;SDS011;16713;52.916;12.834;2022-12-07T07:32:45;10.05;;;6.03;;
29824;SDS011;16713;52.916;12.834;2022-12-07T07:35:12;9.43;;;5.75;;
29824;SDS011;16713;52.916;12.834;2022-12-07T07:37:40;9.35;;;5.93;;
29824;SDS011;16713;52.916;12.834;2022-12-07T07:40:07;10.35;;;5.88;;
29824;SDS011;16713;52.916;12.834;2022-12-07T07:42:34;12.30;;;6.57;;
29824;SDS011;16713;52.916;12.834;2022-12-07T07:45:01;12.23;;;5.78;;
29824;SDS011;16713;52.916;12.834;2022-12-07T07:47:28;11.10;;;6.70;;
29824;SDS011;16713;52.916;12.834;2022-12-07T07:49:55;7.85;;;5.53;;
29824;SDS011;16713;52.916;12.834;2022-12-07T07:52:21;9.05;;;5.82;;
29824;SDS011;16713;52.916;12.834;2022-12-07T07:54:47;8.75;;;5.57;;
29824;SDS011;16713;52.916;12.834;2022-12-07T07:57:14;9.95;;;5.88;;
29824;SDS011;16713;52.916;12.834;2022-12-07T07:59:42;9.75;;;6.85;;
29824;SDS011;16713;52.916;12.834;2022-12-07T08:02:12;10.60;;;6.32;;
29824;SDS011;16713;52.916;12.834;2022-12-07T08:04:40;11.32;;;5.10;;
29824;SDS011;16713;52.916;12.834;2022-12-07T08:07:07;11.23;;;5.80;;
29824;SDS011;16713;52.916;12.834;2022-12-07T08:09:34;11.38;;;5.38;;
29824;SDS011;16713;52.916;12.834;2022-12-07T08:12:00;8.75;;;5.88;;
29824;SDS011;16713;52.916;12.834;2022-12-07T08:14:27;10.80;;;6.45;;
29824;SDS011;16713;52.916;12.834;2022-12-07T08:16:54;8.20;;;5.85;;
29824;SDS011;16713;52.916;12.834;2022-12-07T08:19:21;7.38;;;5.30;;
29824;SDS011;16713;52.916;12.834;2022-12-07T08:21:47;8.88;;;6.10;;
29824;SDS011;16713;52.916;12.834;2022-12-07T08:24:14;8.65;;;5.30;;
29824;SDS011;16713;52.916;12.834;2022-12-07T08:26:41;6.68;;;5.00;;
29824;SDS011;16713;52.916;12.834;2022-12-07T08:29:07;6.43;;;4.65;;
29824;SDS011;16713;52.916;12.834;2022-12-07T08:31:34;11.02;;;5.57;;
29824;SDS011;16713;52.916;12.834;2022-12-07T08:34:01;10.05;;;5.05;;
29824;SDS011;16713;52.916;12.834;2022-12-07T08:36:27;7.25;;;4.55;;
29824;SDS011;16713;52.916;12.834;2022-12-07T08:38:54;7.07;;;5.18;;
29824;SDS011;16713;52.916;12.834;2022-12-07T08:41:40;5.78;;;4.35;;
29824;SDS011;16713;52.916;12.834;2022-12-07T08:44:06;10.98;;;4.72;;
29824;SDS011;16713;52.916;12.834;2022-12-07T08:46:40;6.38;;;4.45;;
29824;SDS011;16713;52.916;12.834;2022-12-07T08:49:33;4.70;;;3.28;;
29824;SDS011;16713;52.916;12.834;2022-12-07T08:52:05;4.35;;;3.60;;
29824;SDS011;16713;52.916;12.834;2022-12-07T08:54:32;5.68;;;3.30;;
29824;SDS011;16713;52.916;12.834;2022-12-07T08:57:01;6.45;;;3.80;;
29824;SDS011;16713;52.916;12.834;2022-12-07T08:59:29;3.65;;;3.05;;
29824;SDS011;16713;52.916;12.834;2022-12-07T09:01:56;3.60;;;2.88;;
29824;SDS011;16713;52.916;12.834;2022-12-07T09:04:22;4.60;;;3.45;;
29824;SDS011;16713;52.916;12.834;2022-12-07T09:06:49;5.68;;;3.08;;
29824;SDS011;16713;52.916;12.834;2022-12-07T09:09:15;4.90;;;3.15;;
29824;SDS011;16713;52.916;12.834;2022-12-07T09:11:42;5.43;;;2.90;;
29824;SDS011;16713;52.916;12.834;2022-12-07T09:14:08;4.05;;;2.60;;
29824;SDS011;16713;52.916;12.834;2022-12-07T09:16:35;4.60;;;2.30;;
29824;SDS011;16713;52.916;12.834;2022-12-07T09:19:01;2.97;;;2.50;;
29824;SDS011;16713;52.916;12.834;2022-12-07T09:21:28;3.05;;;2.63;;
29824;SDS011;16713;52.916;12.834;2022-12-07T09:23:54;3.17;;;2.50;;
29824;SDS011;16713;52.916;12.834;2022-12-07T09:26:21;3.53;;;2.25;;
29824;SDS011;16713;52.916;12.834;2022-12-07T09:28:48;7.05;;;3.13;;
29824;SDS011;16713;52.916;12.834;2022-12-07T09:31:14;4.85;;;3.13;;
29824;SDS011;16713;52.916;12.834;2022-12-07T09:33:56;4.00;;;2.95;;
29824;SDS011;16713;52.916;12.834;2022-12-07T09:36:25;5.15;;;2.92;;
29824;SDS011;16713;52.916;12.834;2022-12-07T09:38:52;3.45;;;2.75;;
29824;SDS011;16713;52.916;12.834;2022-12-07T09:41:19;7.18;;;3.78;;
29824;SDS011;16713;52.916;12.834;2022-12-07T09:43:47;4.40;;;3.03;;
29824;SDS011;16713;52.916;12.834;2022-12-07T09:46:14;3.90;;;3.17;;
29824;SDS011;16713;52.916;12.834;2022-12-07T09:48:43;6.53;;;3.03;;
29824;SDS011;16713;52.916;12.834;2022-12-07T09:53:51;5.88;;;3.60;;
29824;SDS011;16713;52.916;12.834;2022-12-07T09:56:19;3.95;;;3.50;;
29824;SDS011;16713;52.916;12.834;2022-12-07T09:58:46;5.05;;;3.55;;
29824;SDS011;16713;52.916;12.834;2022-12-07T10:01:15;5.65;;;3.67;;
29824;SDS011;16713;52.916;12.834;2022-12-07T10:03:54;5.03;;;3.80;;
29824;SDS011;16713;52.916;12.834;2022-12-07T10:06:24;9.65;;;4.28;;
29824;SDS011;16713;52.916;12.834;2022-12-07T10:08:51;7.60;;;3.65;;
29824;SDS011;16713;52.916;12.834;2022-12-07T10:11:17;7.38;;;4.70;;
29824;SDS011;16713;52.916;12.834;2022-12-07T10:13:48;6.18;;;3.75;;
29824;SDS011;16713;52.916;12.834;2022-12-07T10:16:38;6.90;;;3.80;;
29824;SDS011;16713;52.916;12.834;2022-12-07T10:19:21;6.30;;;3.75;;
29824;SDS011;16713;52.916;12.834;2022-12-07T10:22:04;6.88;;;3.55;;
29824;SDS011;16713;52.916;12.834;2022-12-07T10:24:34;4.60;;;3.17;;
29824;SDS011;16713;52.916;12.834;2022-12-07T10:27:00;4.78;;;3.55;;
29824;SDS011;16713;52.916;12.834;2022-12-07T10:29:30;5.93;;;3.08;;
29824;SDS011;16713;52.916;12.834;2022-12-07T10:32:06;3.13;;;2.80;;
29824;SDS011;16713;52.916;12.834;2022-12-07T10:34:40;4.32;;;3.92;;
29824;SDS011;16713;52.916;12.834;2022-12-07T10:39:43;6.35;;;3.28;;
29824;SDS011;16713;52.916;12.834;2022-12-07T10:42:16;6.60;;;3.75;;
29824;SDS011;16713;52.916;12.834;2022-12-07T10:44:45;4.53;;;3.50;;
29824;SDS011;16713;52.916;12.834;2022-12-07T10:47:28;5.78;;;3.85;;
29824;SDS011;16713;52.916;12.834;2022-12-07T10:50:14;6.25;;;4.80;;
29824;SDS011;16713;52.916;12.834;2022-12-07T10:53:09;8.27;;;4.35;;
29824;SDS011;16713;52.916;12.834;2022-12-07T10:59:09;6.22;;;4.10;;
29824;SDS011;16713;52.916;12.834;2022-12-07T11:01:51;6.10;;;4.43;;
29824;SDS011;16713;52.916;12.834;2022-12-07T11:07:41;6.05;;;4.20;;
29824;SDS011;16713;52.916;12.834;2022-12-07T11:10:26;7.45;;;4.68;;
29824;SDS011;16713;52.916;12.834;2022-12-07T11:13:16;7.10;;;4.22;;
29824;SDS011;16713;52.916;12.834;2022-12-07T11:16:07;6.78;;;4.15;;
29824;SDS011;16713;52.916;12.834;2022-12-07T11:18:49;11.15;;;4.72;;
29824;SDS011;16713;52.916;12.834;2022-12-07T11:21:45;9.27;;;3.83;;
29824;SDS011;16713;52.916;12.834;2022-12-07T11:24:19;9.85;;;5.05;;
29824;SDS011;16713;52.916;12.834;2022-12-07T11:27:14;6.97;;;3.40;;
29824;SDS011;16713;52.916;12.834;2022-12-07T11:36:09;8.35;;;3.60;;
29824;SDS011;16713;52.916;12.834;2022-12-07T11:38:53;6.70;;;3.60;;
29824;SDS011;16713;52.916;12.834;2022-12-07T11:41:26;12.32;;;4.00;;
29824;SDS011;16713;52.916;12.834;2022-12-07T11:43:58;7.13;;;3.40;;
29824;SDS011;16713;52.916;12.834;2022-12-07T11:46:34;8.00;;;3.50;;
29824;SDS011;16713;52.916;12.834;2022-12-07T11:49:23;4.40;;;3.15;;
29824;SDS011;16713;52.916;12.834;2022-12-07T11:51:57;7.03;;;2.95;;
29824;SDS011;16713;52.916;12.834;2022-12-07T11:54:32;7.03;;;3.88;;
29824;SDS011;16713;52.916;12.834;2022-12-07T11:57:12;7.15;;;4.05;;
29824;SDS011;16713;52.916;12.834;2022-12-07T11:59:46;7.30;;;2.80;;
29824;SDS011;16713;52.916;12.834;2022-12-07T12:02:26;4.15;;;2.50;;
29824;SDS011;16713;52.916;12.834;2022-12-07T12:05:13;9.55;;;3.05;;
29824;SDS011;16713;52.916;12.834;2022-12-07T12:07:41;5.53;;;2.38;;
29824;SDS011;16713;52.916;12.834;2022-12-07T12:10:40;7.85;;;2.97;;
29824;SDS011;16713;52.916;12.834;2022-12-07T12:17:05;7.47;;;2.53;;
29824;SDS011;16713;52.916;12.834;2022-12-07T12:25:42;5.40;;;2.70;;
29824;SDS011;16713;52.916;12.834;2022-12-07T12:28:19;7.35;;;2.75;;
29824;SDS011;16713;52.916;12.834;2022-12-07T12:31:15;7.15;;;2.50;;
29824;SDS011;16713;52.916;12.834;2022-12-07T12:33:55;7.00;;;2.35;;
29824;SDS011;16713;52.916;12.834;2022-12-07T12:41:54;7.10;;;2.72;;
29824;SDS011;16713;52.916;12.834;2022-12-07T12:46:52;9.18;;;3.90;;
29824;SDS011;16713;52.916;12.834;2022-12-07T12:51:48;7.93;;;2.63;;
29824;SDS011;16713;52.916;12.834;2022-12-07T12:54:27;7.85;;;2.83;;
29824;SDS011;16713;52.916;12.834;2022-12-07T12:57:01;9.40;;;3.75;;
29824;SDS011;16713;52.916;12.834;2022-12-07T13:15:37;10.48;;;2.75;;
29824;SDS011;16713;52.916;12.834;2022-12-07T13:23:21;8.07;;;3.00;;
29824;SDS011;16713;52.916;12.834;2022-12-07T13:33:58;8.82;;;3.38;;
29824;SDS011;16713;52.916;12.834;2022-12-07T13:38:57;9.45;;;3.85;;
29824;SDS011;16713;52.916;12.834;2022-12-07T13:41:26;11.18;;;3.70;;
29824;SDS011;16713;52.916;12.834;2022-12-07T13:44:00;8.43;;;2.83;;
29824;SDS011;16713;52.916;12.834;2022-12-07T13:46:40;7.72;;;2.70;;
29824;SDS011;16713;52.916;12.834;2022-12-07T13:49:25;10.38;;;2.60;;
29824;SDS011;16713;52.916;12.834;2022-12-07T13:52:08;8.00;;;2.72;;
29824;SDS011;16713;52.916;12.834;2022-12-07T13:55:28;11.25;;;4.13;;
29824;SDS011;16713;52.916;12.834;2022-12-07T13:57:41;12.48;;;2.60;;
29824;SDS011;16713;52.916;12.834;2022-12-07T14:00:15;8.32;;;2.80;;
29824;SDS011;16713;52.916;12.834;2022-12-07T14:02:57;8.32;;;3.05;;
29824;SDS011;16713;52.916;12.834;2022-12-07T14:05:32;11.27;;;3.45;;
29824;SDS011;16713;52.916;12.834;2022-12-07T14:08:02;13.18;;;2.60;;
29824;SDS011;16713;52.916;12.834;2022-12-07T14:10:31;3.50;;;2.35;;
29824;SDS011;16713;52.916;12.834;2022-12-07T14:12:59;4.47;;;1.90;;
29824;SDS011;16713;52.916;12.834;2022-12-07T14:15:31;8.07;;;2.35;;
29824;SDS011;16713;52.916;12.834;2022-12-07T14:18:00;12.52;;;2.65;;
29824;SDS011;16713;52.916;12.834;2022-12-07T14:22:57;11.05;;;2.50;;
29824;SDS011;16713;52.916;12.834;2022-12-07T14:25:24;8.32;;;2.40;;
29824;SDS011;16713;52.916;12.834;2022-12-07T14:27:53;6.20;;;2.78;;
29824;SDS011;16713;52.916;12.834;2022-12-07T14:30:25;8.48;;;1.75;;
29824;SDS011;16713;52.916;12.834;2022-12-07T14:32:55;5.40;;;1.67;;
29824;SDS011;16713;52.916;12.834;2022-12-07T14:35:25;10.25;;;1.85;;
29824;SDS011;16713;52.916;12.834;2022-12-07T14:37:52;8.25;;;1.98;;
29824;SDS011;16713;52.916;12.834;2022-12-07T14:40:23;8.95;;;1.90;;
29824;SDS011;16713;52.916;12.834;2022-12-07T14:42:51;4.03;;;1.50;;
29824;SDS011;16713;52.916;12.834;2022-12-07T14:47:49;5.30;;;1.83;;
29824;SDS011;16713;52.916;12.834;2022-12-07T14:50:37;11.18;;;2.38;;
29824;SDS011;16713;52.916;12.834;2022-12-07T14:53:30;9.52;;;1.77;;
29824;SDS011;16713;52.916;12.834;2022-12-07T14:56:02;5.68;;;1.83;;
29824;SDS011;16713;52.916;12.834;2022-12-07T14:58:31;8.43;;;2.90;;
29824;SDS011;16713;52.916;12.834;2022-12-07T15:00:58;4.32;;;1.75;;
29824;SDS011;16713;52.916;12.834;2022-12-07T15:03:26;10.00;;;2.28;;
29824;SDS011;16713;52.916;12.834;2022-12-07T15:05:52;9.88;;;3.10;;
29824;SDS011;16713;52.916;12.834;2022-12-07T15:08:19;7.15;;;2.45;;
29824;SDS011;16713;52.916;12.834;2022-12-07T15:10:46;7.88;;;3.13;;
29824;SDS011;16713;52.916;12.834;2022-12-07T15:13:12;15.48;;;5.45;;
29824;SDS011;16713;52.916;12.834;2022-12-07T15:16:02;8.20;;;2.80;;
29824;SDS011;16713;52.916;12.834;2022-12-07T15:18:29;9.65;;;3.33;;
29824;SDS011;16713;52.916;12.834;2022-12-07T15:20:55;8.20;;;2.80;;
29824;SDS011;16713;52.916;12.834;2022-12-07T15:23:21;6.68;;;2.33;;
29824;SDS011;16713;52.916;12.834;2022-12-07T15:25:48;10.32;;;2.35;;
29824;SDS011;16713;52.916;12.834;2022-12-07T15:28:15;5.70;;;1.88;;
29824;SDS011;16713;52.916;12.834;2022-12-07T15:30:42;7.47;;;2.05;;
29824;SDS011;16713;52.916;12.834;2022-12-07T15:33:11;6.22;;;2.33;;
29824;SDS011;16713;52.916;12.834;2022-12-07T15:35:39;10.10;;;2.83;;
29824;SDS011;16713;52.916;12.834;2022-12-07T15:38:06;9.48;;;3.60;;
29824;SDS011;16713;52.916;12.834;2022-12-07T15:40:34;6.65;;;2.13;;
29824;SDS011;16713;52.916;12.834;2022-12-07T15:43:01;8.88;;;3.00;;
29824;SDS011;16713;52.916;12.834;2022-12-07T15:45:28;6.53;;;2.35;;
29824;SDS011;16713;52.916;12.834;2022-12-07T15:47:55;7.55;;;2.30;;
29824;SDS011;16713;52.916;12.834;2022-12-07T15:50:41;11.60;;;2.45;;
29824;SDS011;16713;52.916;12.834;2022-12-07T15:53:08;5.88;;;2.20;;
29824;SDS011;16713;52.916;12.834;2022-12-07T15:55:34;7.00;;;2.38;;
29824;SDS011;16713;52.916;12.834;2022-12-07T15:58:01;5.40;;;2.28;;
29824;SDS011;16713;52.916;12.834;2022-12-07T16:00:27;4.30;;;2.03;;
29824;SDS011;16713;52.916;12.834;2022-12-07T16:02:54;6.30;;;2.33;;
29824;SDS011;16713;52.916;12.834;2022-12-07T16:05:20;7.68;;;2.40;;
29824;SDS011;16713;52.916;12.834;2022-12-07T16:07:47;10.10;;;3.20;;
29824;SDS011;16713;52.916;12.834;2022-12-07T16:10:13;6.35;;;2.30;;
29824;SDS011;16713;52.916;12.834;2022-12-07T16:12:40;5.10;;;2.65;;
29824;SDS011;16713;52.916;12.834;2022-12-07T16:15:06;8.73;;;2.55;;
29824;SDS011;16713;52.916;12.834;2022-12-07T16:17:33;7.60;;;2.47;;
29824;SDS011;16713;52.916;12.834;2022-12-07T16:20:00;7.00;;;2.22;;